Islamabad, Pakistan

11:30 PM PKT on August 25, 2016 (GMT +0500)
Chacklala International | | Change Station

Elev 1667 ft 33.62 °N, 73.10 °E | Updated 30 minutes ago

Clear
Clear
82 °F
Feels Like 88 °F
N
5
Wind Variable Wind from NE

Today
High -- | Low -- °F
--% Chance of Precip.
Yesterday
High -- | Low -- °F
Precip. -- in
Pressure 29.77 in
Visibility -9999.0 miles
Clouds Few 10000 ft
Heat Index 88 °F
Dew Point 73 °F
Humidity 74%
Rainfall 0.00 in
Snow Depth Not available.
5:36 AM 6:41 PM
Last Quarter, 43% visible
METAR OPRN 251800Z 05004KT CAVOK FEW100 28/23 Q1008.5/29.78
Pressure 29.77 in
Visibility -9999.0 miles
Clouds Few 10000 ft
Heat Index 88 °F
Dew Point 73 °F
Humidity 74%
Rainfall 0.00 in
Snow Depth Not available.
5:36 AM 6:41 PM
Last Quarter, 43% visible
METAR OPRN 251800Z 05004KT CAVOK FEW100 28/23 Q1008.5/29.78

10-Day Weather Forecast

No radar image for this location.
×

Almanac

Astronomy

Aug. 25, 2016 Rise Set
Actual Time
Civil Twilight
Nautical Twilight
Astronomical Twilight
Moon
Length of Visible Light
Length of Day
Tomorrow will be .
, % of the Moon is Illuminated

Today's Extremes

Country Highs Country Lows

Community

WunderPhotos

Upload Photos

1,934,890 photos uploaded!

WunderBlog® & News

Nearby

Air Quality

  Air Quality AQ Index Pollutant
Not available.

Snow Depth

Station Depth Elevation

Earthquake Activity

City Distance Mag. Time & Date
Minimum magnitude displayed is 2.5.

Coastal Water Temperatures

Place Temperature

Stations

Nearby Weather Stations

Station Location Temp. Windchill Dew Point Humidity Wind Precip. Elev Updated Type